New Berlin Junction, New York
Current Conditions -  °F | °C
As of 8:53 PM on Saturday 25 Oct 2014 (Local Time) from KBGM Reporting Station
Clear Clear  
Wind Chill: 53°   Ceiling: Unl
Heat Index: 53°   Visibility: 10mi
Dew Point: 46°   Wind: 9mph
Humidity: 77%   Direction: 290°WNW
Pressure: 29.62"   Gusts: NA
Location:  42.3372°N, 75.5118°W
Report Text: KBGM 260053Z 29008KT 10SM CLR 12/08 A2962 RMK AO2 SLP032 T01170078
Loading
Personal Weather Stations






























Interactive Weather Map
Tropical Storm Tracking
New forecast layout! Learn more

10-Day Weather Forecast

Advertisements
Track Severe Weather on mobile